Time;durP1;ratioP1;P1;durP2;ratioP2;P2;SDS_P1;SDS_P2;PMS_P1;PMS_P2;Temp;Humidity;BMP_temperature;BMP_pressure;BME280_temperature;BME280_humidity;BME280_pressure;Samples;Min_cycle;Max_cycle;Signal;HPM_P1;HPM_P2
2022/06/13 00:00:27;;;;;;;;;;;13.00;99.90;;;;;;4989784;28;19928;-77
2022/06/13 00:02:53;;;;;;;;;;;13.00;99.90;;;;;;5002550;28;20421;-77
2022/06/13 00:05:19;;;;;;;;;;;13.10;99.90;;;;;;4986250;28;19939;-77
2022/06/13 00:07:45;;;;;;;;;;;13.20;99.90;;;;;;4986914;28;19929;-77
2022/06/13 00:10:12;;;;;;;;;;;13.10;99.90;;;;;;5009791;28;19936;-77
2022/06/13 00:12:38;;;;;;;;;;;13.10;99.90;;;;;;5012165;28;20402;-77
2022/06/13 00:15:04;;;;;;;;;;;13.00;99.90;;;;;;5009223;28;19933;-77
2022/06/13 00:17:30;;;;;;;;;;;12.90;99.90;;;;;;5011186;28;20386;-77
2022/06/13 00:19:56;;;;;;;;;;;12.90;99.90;;;;;;5009002;28;20019;-77
2022/06/13 00:22:21;;;;;;;;;;;13.10;99.90;;;;;;5014878;28;20012;-77
2022/06/13 00:24:47;;;;;;;;;;;13.10;99.90;;;;;;4998400;28;20031;-77
2022/06/13 00:27:12;;;;;;;;;;;13.10;99.90;;;;;;5012110;28;19928;-77
2022/06/13 00:29:39;;;;;;;;;;;13.10;99.90;;;;;;4998184;28;19978;-78
2022/06/13 00:32:05;;;;;;;;;;;13.10;99.90;;;;;;5016491;28;19935;-78
2022/06/13 00:34:30;;;;;;;;;;;13.10;99.90;;;;;;5000146;28;19933;-78
2022/06/13 00:36:56;;;;;;;;;;;13.30;99.90;;;;;;5014295;28;19999;-79
2022/06/13 00:39:21;;;;;;;;;;;13.30;99.90;;;;;;5006757;28;19928;-79
2022/06/13 00:41:48;;;;;;;;;;;13.30;99.90;;;;;;4995392;28;19940;-78
2022/06/13 00:44:24;;;;;;;;;;;13.30;99.90;;;;;;4992550;28;19936;-78
2022/06/13 00:46:50;;;;;;;;;;;13.30;99.90;;;;;;5012398;28;19928;-78
2022/06/13 00:49:39;;;;;;;;;;;13.30;99.90;;;;;;5016533;28;20107;-78
2022/06/13 00:52:14;;;;;;;;;;;13.30;99.90;;;;;;5015925;28;19944;-79
2022/06/13 00:54:41;;;;;;;;;;;13.30;99.90;;;;;;5011458;28;19940;-78
2022/06/13 00:57:08;;;;;;;;;;;13.30;99.90;;;;;;5014192;28;19939;-78
2022/06/13 00:59:36;;;;;;;;;;;13.30;99.90;;;;;;5013065;28;19929;-78
2022/06/13 01:02:02;;;;;;;;;;;13.30;99.90;;;;;;5012182;28;20019;-78
2022/06/13 01:04:28;;;;;;;;;;;13.20;99.90;;;;;;5014057;28;19935;-78
2022/06/13 01:06:55;;;;;;;;;;;13.20;99.90;;;;;;5014211;28;20301;-79
2022/06/13 01:12:07;;;;;;;;;;;13.00;99.90;;;;;;5011713;28;19929;-79
2022/06/13 01:14:40;;;;;;;;;;;13.10;99.90;;;;;;5014800;28;19933;-79
2022/06/13 01:17:10;;;;;;;;;;;13.10;99.90;;;;;;5013090;28;19959;-79
2022/06/13 01:19:36;;;;;;;;;;;13.10;99.90;;;;;;4996055;28;20410;-79
2022/06/13 01:22:18;;;;;;;;;;;13.10;99.90;;;;;;4993254;28;19937;-79
2022/06/13 01:24:47;;;;;;;;;;;13.10;99.90;;;;;;5012804;28;20034;-78
2022/06/13 01:27:12;;;;;;;;;;;13.10;99.90;;;;;;5009611;28;20002;-78
2022/06/13 01:29:56;;;;;;;;;;;13.20;99.90;;;;;;5007416;28;20011;-79
2022/06/13 01:32:42;;;;;;;;;;;13.20;99.90;;;;;;5008830;28;19924;-78
2022/06/13 01:35:37;;;;;;;;;;;13.20;99.90;;;;;;4950211;28;19929;-79
2022/06/13 01:38:10;;;;;;;;;;;13.20;99.90;;;;;;4991192;28;19933;-79
2022/06/13 01:40:42;;;;;;;;;;;13.20;99.90;;;;;;5010802;28;19939;-79
2022/06/13 01:43:13;;;;;;;;;;;13.20;99.90;;;;;;5007336;28;20580;-79
2022/06/13 01:45:47;;;;;;;;;;;13.20;99.90;;;;;;5006245;28;20531;-79
2022/06/13 01:48:22;;;;;;;;;;;13.30;99.90;;;;;;5003884;28;19984;-79
2022/06/13 01:51:14;;;;;;;;;;;13.20;99.90;;;;;;4993545;28;20464;-78
2022/06/13 01:53:47;;;;;;;;;;;13.20;99.90;;;;;;5004738;28;19932;-79
2022/06/13 01:56:13;;;;;;;;;;;13.20;99.90;;;;;;5011304;28;19925;-78
2022/06/13 01:58:44;;;;;;;;;;;13.20;99.90;;;;;;5010889;28;20618;-78
2022/06/13 02:01:10;;;;;;;;;;;13.30;99.90;;;;;;5006132;28;20680;-78
2022/06/13 02:03:43;;;;;;;;;;;13.20;99.90;;;;;;5005481;28;21830;-79
2022/06/13 02:06:17;;;;;;;;;;;13.20;99.90;;;;;;5008251;28;20561;-78
2022/06/13 02:08:47;;;;;;;;;;;13.20;99.90;;;;;;5008474;28;20063;-79
2022/06/13 02:11:17;;;;;;;;;;;13.20;99.90;;;;;;5010672;28;19924;-78
2022/06/13 02:13:45;;;;;;;;;;;13.20;99.90;;;;;;5011339;28;19956;-78
2022/06/13 02:16:17;;;;;;;;;;;13.20;99.90;;;;;;5010912;28;19925;-79
2022/06/13 02:18:50;;;;;;;;;;;13.20;99.90;;;;;;5012838;28;19935;-79
2022/06/13 02:21:16;;;;;;;;;;;13.20;99.90;;;;;;5011508;28;20523;-79
2022/06/13 02:23:51;;;;;;;;;;;13.20;99.90;;;;;;4996733;28;19939;-78
2022/06/13 02:26:19;;;;;;;;;;;13.20;99.90;;;;;;5010297;28;20007;-78
2022/06/13 02:29:05;;;;;;;;;;;13.20;99.90;;;;;;5013936;28;19981;-78
2022/06/13 02:31:44;;;;;;;;;;;13.10;99.90;;;;;;5011399;28;19939;-80
2022/06/13 02:34:21;;;;;;;;;;;13.20;99.90;;;;;;4980534;28;20023;-79
2022/06/13 02:36:49;;;;;;;;;;;13.20;99.90;;;;;;5012102;28;19932;-79
2022/06/13 02:39:21;;;;;;;;;;;13.10;99.90;;;;;;5012736;28;20337;-78
2022/06/13 02:41:53;;;;;;;;;;;13.10;99.90;;;;;;4995345;28;19928;-78
2022/06/13 02:44:31;;;;;;;;;;;13.20;99.90;;;;;;5011350;28;19976;-78
2022/06/13 02:46:59;;;;;;;;;;;13.20;99.90;;;;;;4987294;28;19976;-78
2022/06/13 02:49:27;;;;;;;;;;;13.20;99.90;;;;;;5010495;28;20424;-79
2022/06/13 02:52:11;;;;;;;;;;;13.20;99.90;;;;;;5011027;28;19939;-79
2022/06/13 02:54:48;;;;;;;;;;;13.10;99.90;;;;;;5009482;28;19929;-79
2022/06/13 02:57:23;;;;;;;;;;;13.10;99.90;;;;;;4961794;28;19956;-78
2022/06/13 02:59:48;;;;;;;;;;;13.20;99.90;;;;;;5001816;28;20990;-78
2022/06/13 03:02:17;;;;;;;;;;;13.10;99.90;;;;;;5008956;28;20356;-79
2022/06/13 03:04:44;;;;;;;;;;;13.20;99.90;;;;;;5006043;28;19928;-79
2022/06/13 03:07:10;;;;;;;;;;;13.10;99.90;;;;;;5004961;28;20040;-79
2022/06/13 03:09:45;;;;;;;;;;;13.10;99.90;;;;;;5012782;28;19929;-79
2022/06/13 03:12:14;;;;;;;;;;;13.10;99.90;;;;;;5010435;28;19929;-78
2022/06/13 03:14:40;;;;;;;;;;;13.10;99.90;;;;;;5012140;28;19974;-78
2022/06/13 03:17:12;;;;;;;;;;;13.10;99.90;;;;;;5008658;28;20016;-78
2022/06/13 03:19:40;;;;;;;;;;;13.20;99.90;;;;;;5004663;28;19929;-78
2022/06/13 03:22:09;;;;;;;;;;;13.20;99.90;;;;;;4985554;28;19951;-79
2022/06/13 03:24:41;;;;;;;;;;;13.20;99.90;;;;;;4966974;28;19939;-78
2022/06/13 03:27:12;;;;;;;;;;;13.10;99.90;;;;;;5011688;28;19928;-79
2022/06/13 03:29:49;;;;;;;;;;;13.10;99.90;;;;;;5010851;28;19932;-78
2022/06/13 03:32:21;;;;;;;;;;;13.10;99.90;;;;;;5006534;28;19960;-79
2022/06/13 03:34:50;;;;;;;;;;;13.10;99.90;;;;;;5010284;28;19986;-79
2022/06/13 03:37:36;;;;;;;;;;;13.00;99.90;;;;;;5004949;28;19929;-79
2022/06/13 03:40:02;;;;;;;;;;;13.10;99.90;;;;;;5009612;28;20035;-79
2022/06/13 03:42:34;;;;;;;;;;;13.00;99.90;;;;;;5011864;28;19929;-79
2022/06/13 03:45:04;;;;;;;;;;;13.00;99.90;;;;;;4994870;28;19937;-79
2022/06/13 03:47:31;;;;;;;;;;;13.00;99.90;;;;;;4988146;28;19933;-79
2022/06/13 03:50:12;;;;;;;;;;;13.00;99.90;;;;;;5011339;28;19928;-79
2022/06/13 03:52:39;;;;;;;;;;;13.10;99.90;;;;;;5008698;28;19928;-79
2022/06/13 03:55:11;;;;;;;;;;;13.10;99.90;;;;;;5003346;28;20410;-79
2022/06/13 03:57:52;;;;;;;;;;;13.10;99.90;;;;;;5008060;28;19955;-79
2022/06/13 04:00:24;;;;;;;;;;;13.10;99.90;;;;;;5002391;28;19969;-79
2022/06/13 04:02:50;;;;;;;;;;;13.10;99.90;;;;;;5005547;28;20810;-79
2022/06/13 04:05:19;;;;;;;;;;;13.10;99.90;;;;;;4990028;28;19925;-79
2022/06/13 04:07:45;;;;;;;;;;;13.20;99.90;;;;;;4969914;28;19932;-79
2022/06/13 04:10:12;;;;;;;;;;;13.20;99.90;;;;;;4996993;28;19986;-78
2022/06/13 04:12:57;;;;;;;;;;;13.20;99.90;;;;;;5015770;28;20500;-79
2022/06/13 04:15:42;;;;;;;;;;;13.20;99.90;;;;;;5016326;28;19979;-78
2022/06/13 04:18:11;;;;;;;;;;;13.20;99.90;;;;;;5009932;28;19932;-78
2022/06/13 04:20:37;;;;;;;;;;;13.30;99.90;;;;;;5011263;28;19967;-79
2022/06/13 04:23:05;;;;;;;;;;;13.30;99.90;;;;;;4997151;28;20031;-80
2022/06/13 04:25:40;;;;;;;;;;;13.40;99.90;;;;;;5013664;28;19998;-79
2022/06/13 04:28:10;;;;;;;;;;;13.40;99.90;;;;;;5013690;28;19968;-79
2022/06/13 04:30:36;;;;;;;;;;;13.40;99.90;;;;;;5013185;28;19933;-79
2022/06/13 04:33:27;;;;;;;;;;;13.50;99.90;;;;;;5007969;28;19940;-79
2022/06/13 04:35:53;;;;;;;;;;;13.40;99.90;;;;;;5011671;28;19925;-78
2022/06/13 04:38:20;;;;;;;;;;;13.60;99.90;;;;;;5003876;28;20437;-78
2022/06/13 04:40:48;;;;;;;;;;;13.60;99.90;;;;;;4991904;28;20365;-78
2022/06/13 04:43:17;;;;;;;;;;;13.70;99.90;;;;;;4987856;28;20390;-78
2022/06/13 04:45:56;;;;;;;;;;;13.80;99.90;;;;;;4981788;28;19929;-79
2022/06/13 04:48:23;;;;;;;;;;;13.90;99.90;;;;;;4973319;28;19990;-78
2022/06/13 04:50:50;;;;;;;;;;;14.00;99.90;;;;;;4994790;28;20012;-79
2022/06/13 04:53:22;;;;;;;;;;;14.10;99.90;;;;;;4989255;28;20003;-78
2022/06/13 04:55:50;;;;;;;;;;;15.40;99.90;;;;;;4979390;28;19929;-79
2022/06/13 04:58:32;;;;;;;;;;;16.10;99.90;;;;;;4994059;28;20430;-79
2022/06/13 05:01:03;;;;;;;;;;;15.80;99.90;;;;;;4994729;28;20020;-78
2022/06/13 05:03:31;;;;;;;;;;;16.80;99.90;;;;;;4994660;28;19929;-79
2022/06/13 05:06:04;;;;;;;;;;;16.10;99.90;;;;;;4991414;28;19933;-79
2022/06/13 05:08:32;;;;;;;;;;;16.10;99.90;;;;;;4992985;28;19937;-79
2022/06/13 05:11:02;;;;;;;;;;;16.10;99.90;;;;;;4966254;28;20538;-79
2022/06/13 05:13:28;;;;;;;;;;;16.30;99.90;;;;;;4980873;28;19932;-79
2022/06/13 05:16:01;;;;;;;;;;;15.90;99.90;;;;;;4972076;28;19936;-78
2022/06/13 05:18:39;;;;;;;;;;;15.60;99.90;;;;;;4974474;28;19999;-79
2022/06/13 05:21:23;;;;;;;;;;;15.50;99.90;;;;;;4993935;28;21047;-79
2022/06/13 05:24:17;;;;;;;;;;;16.60;99.90;;;;;;4989981;28;19929;-79
2022/06/13 05:26:42;;;;;;;;;;;18.30;99.90;;;;;;4989018;28;19975;-80
2022/06/13 05:29:08;;;;;;;;;;;19.60;99.90;;;;;;4974664;28;19928;-79
2022/06/13 05:31:34;;;;;;;;;;;19.30;99.90;;;;;;4962158;28;19929;-79
2022/06/13 05:34:00;;;;;;;;;;;20.90;99.90;;;;;;5006615;28;20560;-79
2022/06/13 05:36:26;;;;;;;;;;;21.20;99.90;;;;;;4991235;28;20411;-79
2022/06/13 05:38:54;;;;;;;;;;;21.00;99.90;;;;;;4991035;28;19933;-78
2022/06/13 05:41:20;;;;;;;;;;;22.10;99.90;;;;;;4992862;28;19982;-78
2022/06/13 05:43:45;;;;;;;;;;;22.50;99.90;;;;;;5003091;28;19929;-79
2022/06/13 05:46:15;;;;;;;;;;;22.40;99.90;;;;;;5004755;28;19932;-78
2022/06/13 05:48:41;;;;;;;;;;;21.00;99.90;;;;;;4997141;28;19964;-79
2022/06/13 05:51:06;;;;;;;;;;;19.90;99.90;;;;;;4999902;28;20027;-78
2022/06/13 05:53:32;;;;;;;;;;;19.00;99.90;;;;;;5014405;28;20444;-78
2022/06/13 05:55:59;;;;;;;;;;;18.70;99.90;;;;;;5001982;28;19933;-79
2022/06/13 05:58:25;;;;;;;;;;;18.20;99.90;;;;;;4997317;28;20338;-79
2022/06/13 06:00:52;;;;;;;;;;;17.80;99.90;;;;;;5012050;28;20059;-78
2022/06/13 06:03:18;;;;;;;;;;;17.60;99.90;;;;;;5013699;28;19939;-78
2022/06/13 06:05:44;;;;;;;;;;;17.20;99.90;;;;;;5013355;28;19928;-80
2022/06/13 06:08:15;;;;;;;;;;;17.10;99.90;;;;;;5012751;28;19933;-79
2022/06/13 06:10:41;;;;;;;;;;;17.20;99.90;;;;;;4997594;28;19929;-78
2022/06/13 06:13:07;;;;;;;;;;;17.10;99.90;;;;;;5013178;28;19974;-78
2022/06/13 06:15:33;;;;;;;;;;;17.20;99.90;;;;;;5017368;28;20306;-78
2022/06/13 06:17:58;;;;;;;;;;;17.10;99.90;;;;;;5013314;28;20012;-78
2022/06/13 06:20:24;;;;;;;;;;;17.40;99.90;;;;;;5013753;28;20154;-77
2022/06/13 06:22:50;;;;;;;;;;;17.80;99.90;;;;;;5014979;28;20685;-78
2022/06/13 06:25:15;;;;;;;;;;;18.30;99.90;;;;;;5013742;28;20298;-78
2022/06/13 06:27:41;;;;;;;;;;;18.80;99.90;;;;;;5004920;28;20285;-80
2022/06/13 06:30:07;;;;;;;;;;;18.90;99.90;;;;;;4995632;28;19979;-78
2022/06/13 06:32:33;;;;;;;;;;;18.90;99.90;;;;;;5016210;28;20030;-79
2022/06/13 06:34:58;;;;;;;;;;;18.70;99.90;;;;;;5012784;28;20715;-77
2022/06/13 06:37:24;;;;;;;;;;;18.40;99.90;;;;;;4999137;28;19936;-80
2022/06/13 06:39:50;;;;;;;;;;;18.60;99.90;;;;;;5012365;28;20691;-78
2022/06/13 06:42:15;;;;;;;;;;;18.40;99.90;;;;;;4985695;28;19940;-78
2022/06/13 06:44:41;;;;;;;;;;;18.60;99.90;;;;;;5005721;28;19928;-78
2022/06/13 06:47:07;;;;;;;;;;;19.20;99.90;;;;;;5015247;28;19929;-78
2022/06/13 06:49:34;;;;;;;;;;;19.10;99.90;;;;;;5016586;28;19936;-79
2022/06/13 06:52:01;;;;;;;;;;;18.70;99.90;;;;;;5014807;28;19954;-78
2022/06/13 06:59:55;;;;;;;;;;;18.30;99.90;;;;;;5015733;28;19929;-78
2022/06/13 07:02:24;;;;;;;;;;;18.80;99.90;;;;;;5014310;28;19967;-79
2022/06/13 07:04:52;;;;;;;;;;;19.20;99.90;;;;;;5014984;28;20673;-80
2022/06/13 07:07:17;;;;;;;;;;;18.70;99.90;;;;;;5011855;28;20019;-79
2022/06/13 07:09:43;;;;;;;;;;;18.60;99.90;;;;;;5014414;28;20404;-79
2022/06/13 07:12:09;;;;;;;;;;;18.80;99.90;;;;;;5014730;28;19932;-77
2022/06/13 07:14:35;;;;;;;;;;;19.00;99.90;;;;;;4998376;28;19939;-79
2022/06/13 07:17:02;;;;;;;;;;;19.40;99.90;;;;;;5013556;28;20501;-77
2022/06/13 07:19:28;;;;;;;;;;;19.40;99.90;;;;;;5014576;28;19928;-78
2022/06/13 07:21:55;;;;;;;;;;;18.90;99.90;;;;;;5013990;28;19940;-81
2022/06/13 07:24:20;;;;;;;;;;;19.00;99.90;;;;;;5010947;28;19933;-79
2022/06/13 07:26:46;;;;;;;;;;;18.80;99.90;;;;;;4997880;28;20383;-78
2022/06/13 07:29:12;;;;;;;;;;;18.60;99.90;;;;;;4970595;28;20628;-79
2022/06/13 07:31:40;;;;;;;;;;;18.30;99.90;;;;;;5014198;28;19935;-78
2022/06/13 07:34:07;;;;;;;;;;;17.70;99.90;;;;;;5015633;28;19929;-79
2022/06/13 07:36:32;;;;;;;;;;;17.00;99.90;;;;;;5015981;28;20040;-81
2022/06/13 07:38:58;;;;;;;;;;;15.70;99.90;;;;;;5007956;28;19929;-83
2022/06/13 07:41:24;;;;;;;;;;;15.30;99.90;;;;;;4968588;28;19991;-84
2022/06/13 07:43:51;;;;;;;;;;;15.10;99.90;;;;;;4979230;28;19991;-84
2022/06/13 07:46:17;;;;;;;;;;;14.80;99.90;;;;;;5000440;28;20353;-84
2022/06/13 07:48:44;;;;;;;;;;;14.40;99.90;;;;;;4981583;28;20567;-84
2022/06/13 07:51:10;;;;;;;;;;;14.50;99.90;;;;;;4980252;28;19933;-83
2022/06/13 07:53:35;;;;;;;;;;;14.50;99.90;;;;;;4981809;28;20378;-83
2022/06/13 07:56:02;;;;;;;;;;;14.50;99.90;;;;;;4952777;28;20048;-83
2022/06/13 07:58:31;;;;;;;;;;;14.50;99.90;;;;;;4980697;28;19983;-83
2022/06/13 08:00:57;;;;;;;;;;;14.40;99.90;;;;;;4983137;28;20024;-82
2022/06/13 08:03:24;;;;;;;;;;;14.90;99.90;;;;;;4979176;28;19929;-82
2022/06/13 08:05:50;;;;;;;;;;;15.30;99.90;;;;;;4993393;28;19944;-82
2022/06/13 08:08:17;;;;;;;;;;;15.80;99.90;;;;;;4977034;28;19928;-82
2022/06/13 08:10:43;;;;;;;;;;;16.00;99.90;;;;;;4974240;28;20023;-82
2022/06/13 08:13:11;;;;;;;;;;;16.40;99.90;;;;;;5000317;28;19929;-83
2022/06/13 08:15:37;;;;;;;;;;;16.80;99.90;;;;;;5002096;28;19933;-81
2022/06/13 08:18:03;;;;;;;;;;;17.40;99.90;;;;;;4998079;28;20336;-81
2022/06/13 08:20:29;;;;;;;;;;;17.60;99.90;;;;;;4997337;28;19928;-81
2022/06/13 08:22:58;;;;;;;;;;;17.80;99.90;;;;;;4979974;28;19929;-80
2022/06/13 08:25:32;;;;;;;;;;;18.10;99.90;;;;;;5000086;28;19929;-81
2022/06/13 08:27:58;;;;;;;;;;;18.10;99.90;;;;;;4975834;28;20359;-81
2022/06/13 08:30:25;;;;;;;;;;;18.30;99.90;;;;;;4977478;28;19936;-80
2022/06/13 08:32:51;;;;;;;;;;;18.50;99.90;;;;;;4997736;28;19972;-80
2022/06/13 08:35:17;;;;;;;;;;;18.80;99.90;;;;;;4999114;28;20056;-80
2022/06/13 08:37:42;;;;;;;;;;;19.00;99.90;;;;;;4972311;28;19964;-81
2022/06/13 08:40:10;;;;;;;;;;;18.70;99.90;;;;;;5017833;28;20311;-81
2022/06/13 08:42:54;;;;;;;;;;;19.00;99.90;;;;;;5014628;28;19955;-80
2022/06/13 08:45:24;;;;;;;;;;;19.40;99.90;;;;;;5009472;28;19933;-80
2022/06/13 08:47:54;;;;;;;;;;;19.60;99.90;;;;;;5014785;28;19933;-82
2022/06/13 08:50:28;;;;;;;;;;;19.50;99.90;;;;;;5031824;28;20027;-81
2022/06/13 08:52:55;;;;;;;;;;;19.40;99.90;;;;;;5033148;28;20032;-81
2022/06/13 08:55:33;;;;;;;;;;;19.40;99.90;;;;;;5013484;28;20019;-81
2022/06/13 08:58:02;;;;;;;;;;;18.90;99.90;;;;;;5030059;28;19932;-81
2022/06/13 09:00:30;;;;;;;;;;;18.40;99.90;;;;;;5033007;28;19935;-79
2022/06/13 09:03:02;;;;;;;;;;;17.90;99.90;;;;;;5032555;28;20252;-81
2022/06/13 09:05:36;;;;;;;;;;;17.60;99.90;;;;;;5030927;28;19937;-79
2022/06/13 09:08:10;;;;;;;;;;;17.70;99.90;;;;;;5021584;28;19928;-80
2022/06/13 09:10:41;;;;;;;;;;;17.60;99.90;;;;;;5014931;28;19928;-79
2022/06/13 09:13:06;;;;;;;;;;;17.40;99.90;;;;;;5023061;28;19933;-79
2022/06/13 09:15:39;;;;;;;;;;;17.40;99.90;;;;;;5014640;28;19936;-81
2022/06/13 09:18:09;;;;;;;;;;;18.10;99.90;;;;;;5000579;28;20871;-80
2022/06/13 09:20:39;;;;;;;;;;;18.50;99.90;;;;;;5017162;28;20596;-81
2022/06/13 09:23:15;;;;;;;;;;;18.30;99.90;;;;;;5020049;28;19968;-81
2022/06/13 09:25:45;;;;;;;;;;;18.80;99.90;;;;;;5015882;28;19929;-81
2022/06/13 09:28:19;;;;;;;;;;;19.20;99.90;;;;;;5007534;28;19935;-80
2022/06/13 09:30:49;;;;;;;;;;;19.10;99.90;;;;;;5002596;28;19955;-79
2022/06/13 09:33:35;;;;;;;;;;;19.10;99.90;;;;;;5018837;28;20469;-80
2022/06/13 09:36:15;;;;;;;;;;;19.50;99.90;;;;;;5017381;28;20562;-81
2022/06/13 09:38:46;;;;;;;;;;;19.90;99.90;;;;;;5008668;28;20541;-78
2022/06/13 09:41:12;;;;;;;;;;;19.90;99.90;;;;;;5001948;28;19929;-79
2022/06/13 09:43:46;;;;;;;;;;;19.30;99.90;;;;;;5001114;28;20657;-79
2022/06/13 09:46:15;;;;;;;;;;;18.80;99.90;;;;;;4997119;28;20024;-80
2022/06/13 09:48:44;;;;;;;;;;;18.50;99.90;;;;;;4986326;28;19931;-79
2022/06/13 09:51:12;;;;;;;;;;;18.70;99.90;;;;;;4983159;28;20150;-81
2022/06/13 09:53:44;;;;;;;;;;;19.00;99.90;;;;;;5009321;28;19929;-79
2022/06/13 09:56:25;;;;;;;;;;;19.60;99.90;;;;;;5014696;28;19935;-80
2022/06/13 09:58:54;;;;;;;;;;;19.60;99.90;;;;;;5009949;28;20433;-80
2022/06/13 10:01:28;;;;;;;;;;;19.40;99.90;;;;;;5000041;28;20680;-77
2022/06/13 10:04:05;;;;;;;;;;;19.00;99.90;;;;;;5001115;28;20012;-78
2022/06/13 10:06:30;;;;;;;;;;;18.50;99.90;;;;;;4997114;28;19929;-80
2022/06/13 10:09:04;;;;;;;;;;;18.30;99.90;;;;;;5001958;28;19929;-79
2022/06/13 10:11:29;;;;;;;;;;;18.00;99.90;;;;;;4996560;28;19996;-78
2022/06/13 10:14:30;;;;;;;;;;;17.90;99.90;;;;;;4999625;28;20517;-79
2022/06/13 10:17:02;;;;;;;;;;;18.00;99.90;;;;;;4914998;29;19931;-80
2022/06/13 10:19:46;;;;;;;;;;;19.00;99.90;;;;;;4979095;28;19974;-81
2022/06/13 10:22:35;;;;;;;;;;;18.90;99.90;;;;;;4998299;28;19928;-80
2022/06/13 10:25:19;;;;;;;;;;;18.70;99.90;;;;;;4996618;28;19929;-78
2022/06/13 10:27:57;;;;;;;;;;;18.30;99.90;;;;;;5000639;28;20710;-79
2022/06/13 10:30:25;;;;;;;;;;;18.20;99.90;;;;;;4997496;28;19929;-78
2022/06/13 10:33:02;;;;;;;;;;;18.60;99.90;;;;;;5000677;28;20005;-77
2022/06/13 10:35:48;;;;;;;;;;;18.40;99.90;;;;;;4996856;28;20020;-78
2022/06/13 10:38:33;;;;;;;;;;;18.90;99.90;;;;;;5002314;28;19929;-79
2022/06/13 10:40:58;;;;;;;;;;;18.90;99.90;;;;;;5018122;28;19928;-81
2022/06/13 10:43:24;;;;;;;;;;;19.60;99.90;;;;;;5017706;28;20440;-79
2022/06/13 10:45:50;;;;;;;;;;;20.00;99.90;;;;;;5018138;28;19933;-82
2022/06/13 10:48:25;;;;;;;;;;;20.20;99.90;;;;;;5015827;28;19951;-84
2022/06/13 10:50:58;;;;;;;;;;;20.20;99.90;;;;;;5015373;28;20067;-80
2022/06/13 10:53:26;;;;;;;;;;;19.80;99.90;;;;;;5017604;28;20575;-78
2022/06/13 10:55:54;;;;;;;;;;;20.50;99.90;;;;;;5017778;28;20394;-79
2022/06/13 10:58:23;;;;;;;;;;;20.70;99.90;;;;;;5014240;28;19933;-81
2022/06/13 11:01:04;;;;;;;;;;;20.60;99.90;;;;;;5017653;28;20612;-80
2022/06/13 11:03:29;;;;;;;;;;;20.70;99.90;;;;;;5015812;28;19936;-77
2022/06/13 11:05:57;;;;;;;;;;;20.70;99.90;;;;;;5020848;28;19932;-79
2022/06/13 11:08:23;;;;;;;;;;;20.50;99.90;;;;;;5021090;28;19932;-81
2022/06/13 11:10:53;;;;;;;;;;;21.00;99.90;;;;;;5015698;28;19936;-78
2022/06/13 11:13:24;;;;;;;;;;;20.80;99.90;;;;;;4989233;28;19956;-78
2022/06/13 11:24:55;;;;;;;;;;;20.60;99.90;;;;;;5023956;28;19964;-80
2022/06/13 11:30:28;;;;;;;;;;;20.50;99.90;;;;;;4982486;28;19929;-78
2022/06/13 11:33:06;;;;;;;;;;;20.90;99.90;;;;;;5031597;28;19932;-80
2022/06/13 11:35:41;;;;;;;;;;;20.80;99.90;;;;;;5027082;28;19982;-82
2022/06/13 11:38:25;;;;;;;;;;;21.30;99.90;;;;;;5027730;28;20389;-81
2022/06/13 11:41:00;;;;;;;;;;;21.10;99.90;;;;;;5029728;28;19929;-79
2022/06/13 11:43:48;;;;;;;;;;;21.00;99.90;;;;;;5027942;28;20325;-82
2022/06/13 11:46:32;;;;;;;;;;;21.00;99.90;;;;;;5028054;28;19928;-78
2022/06/13 11:49:01;;;;;;;;;;;20.70;99.90;;;;;;5028485;28;19933;-79
2022/06/13 11:51:28;;;;;;;;;;;20.40;99.90;;;;;;5029767;28;19928;-80
2022/06/13 11:53:56;;;;;;;;;;;19.90;99.90;;;;;;5029004;28;20371;-79
2022/06/13 11:56:29;;;;;;;;;;;19.20;99.90;;;;;;5027465;28;19929;-79
2022/06/13 11:58:57;;;;;;;;;;;19.10;99.90;;;;;;5010107;28;19935;-80
2022/06/13 12:01:23;;;;;;;;;;;19.00;99.90;;;;;;5028045;28;20469;-79
2022/06/13 12:04:04;;;;;;;;;;;18.90;99.90;;;;;;5011629;28;19939;-79
2022/06/13 12:06:37;;;;;;;;;;;18.50;99.90;;;;;;5010182;28;19936;-78
2022/06/13 12:09:05;;;;;;;;;;;18.60;99.90;;;;;;5027393;28;19928;-79
2022/06/13 12:11:41;;;;;;;;;;;18.40;99.90;;;;;;5006955;28;19928;-80
2022/06/13 12:14:08;;;;;;;;;;;18.40;99.90;;;;;;5027387;28;20010;-80
2022/06/13 12:16:33;;;;;;;;;;;18.20;99.90;;;;;;5029519;28;20356;-80
2022/06/13 12:19:04;;;;;;;;;;;18.10;99.90;;;;;;5013271;28;20385;-80
2022/06/13 12:21:52;;;;;;;;;;;18.20;99.90;;;;;;5021182;28;19929;-79
2022/06/13 12:24:21;;;;;;;;;;;18.30;99.90;;;;;;5018113;28;20558;-80
2022/06/13 12:26:59;;;;;;;;;;;18.40;99.90;;;;;;5018572;28;19933;-79
2022/06/13 12:29:31;;;;;;;;;;;18.40;99.90;;;;;;5017348;28;20011;-79
2022/06/13 12:32:01;;;;;;;;;;;18.40;99.90;;;;;;5020960;28;19960;-79
2022/06/13 12:34:29;;;;;;;;;;;18.30;99.90;;;;;;5020317;28;19929;-79
2022/06/13 12:36:55;;;;;;;;;;;18.40;99.90;;;;;;5019929;28;20586;-81
2022/06/13 12:39:32;;;;;;;;;;;18.80;99.90;;;;;;5001606;28;19991;-80
2022/06/13 12:41:57;;;;;;;;;;;19.50;99.90;;;;;;5019347;28;19933;-81
2022/06/13 12:44:42;;;;;;;;;;;19.20;99.90;;;;;;5020083;28;20401;-80
2022/06/13 12:47:10;;;;;;;;;;;19.00;99.90;;;;;;5020028;28;20002;-80
2022/06/13 12:49:45;;;;;;;;;;;18.80;99.90;;;;;;5018283;28;20409;-80
2022/06/13 12:52:20;;;;;;;;;;;18.80;99.90;;;;;;5019996;28;19943;-79
2022/06/13 12:54:59;;;;;;;;;;;18.90;99.90;;;;;;5000808;28;19936;-79
2022/06/13 12:57:30;;;;;;;;;;;19.00;99.90;;;;;;5016060;28;20003;-79
2022/06/13 13:00:01;;;;;;;;;;;19.60;99.90;;;;;;5019502;28;19929;-80
2022/06/13 13:02:44;;;;;;;;;;;19.70;99.90;;;;;;4998778;28;19925;-80
2022/06/13 13:05:10;;;;;;;;;;;19.50;99.90;;;;;;5000357;28;19933;-79
2022/06/13 13:07:54;;;;;;;;;;;19.40;99.90;;;;;;5018354;28;20311;-79
2022/06/13 13:10:23;;;;;;;;;;;19.40;99.90;;;;;;5015268;28;20378;-79
2022/06/13 13:13:05;;;;;;;;;;;19.10;99.90;;;;;;5017705;28;19928;-80
2022/06/13 13:15:34;;;;;;;;;;;18.70;99.90;;;;;;5016680;28;19931;-79
2022/06/13 13:18:02;;;;;;;;;;;18.60;99.90;;;;;;5015995;28;19925;-78
2022/06/13 13:20:35;;;;;;;;;;;18.50;99.90;;;;;;5017215;28;20409;-78
2022/06/13 13:23:05;;;;;;;;;;;18.50;99.90;;;;;;5019116;28;19933;-79
2022/06/13 13:25:37;;;;;;;;;;;18.70;99.90;;;;;;5015290;28;19929;-79
2022/06/13 13:28:06;;;;;;;;;;;18.50;99.90;;;;;;4973791;28;19936;-79
2022/06/13 13:30:40;;;;;;;;;;;19.30;99.90;;;;;;5013065;28;19928;-78
2022/06/13 13:33:25;;;;;;;;;;;19.90;99.90;;;;;;5016805;28;19928;-79
2022/06/13 13:35:54;;;;;;;;;;;20.00;99.90;;;;;;5012133;28;19998;-82
2022/06/13 13:38:26;;;;;;;;;;;19.70;99.90;;;;;;4997126;28;19998;-79
2022/06/13 13:40:52;;;;;;;;;;;19.70;99.90;;;;;;5015225;28;19933;-80
2022/06/13 13:43:25;;;;;;;;;;;19.60;99.90;;;;;;5016824;28;19982;-79
2022/06/13 13:45:50;;;;;;;;;;;19.60;99.90;;;;;;4995768;28;19928;-81
2022/06/13 13:48:16;;;;;;;;;;;19.50;99.90;;;;;;4997789;28;19979;-78
2022/06/13 13:50:54;;;;;;;;;;;19.60;99.90;;;;;;5018428;28;19932;-79
2022/06/13 13:53:22;;;;;;;;;;;19.50;99.90;;;;;;5022833;28;19936;-79
2022/06/13 13:55:51;;;;;;;;;;;19.10;99.90;;;;;;5030279;28;19932;-78
2022/06/13 13:58:20;;;;;;;;;;;19.10;99.90;;;;;;5029360;28;20129;-81
2022/06/13 14:00:59;;;;;;;;;;;19.00;99.90;;;;;;5013733;28;20004;-82
2022/06/13 14:03:30;;;;;;;;;;;19.00;99.90;;;;;;5030435;28;20449;-78
2022/06/13 14:06:04;;;;;;;;;;;18.80;99.90;;;;;;5032260;28;19929;-80
2022/06/13 14:08:30;;;;;;;;;;;18.90;99.90;;;;;;5031039;28;20015;-78
2022/06/13 14:10:57;;;;;;;;;;;18.70;99.90;;;;;;5032724;28;19929;-77
2022/06/13 14:13:25;;;;;;;;;;;18.90;99.90;;;;;;5031001;28;19954;-79
2022/06/13 14:15:50;;;;;;;;;;;18.70;99.90;;;;;;5030619;28;19933;-80
2022/06/13 14:18:21;;;;;;;;;;;19.10;99.90;;;;;;5005948;28;19933;-79
2022/06/13 14:20:47;;;;;;;;;;;20.00;99.90;;;;;;5026720;28;19928;-79
2022/06/13 14:23:17;;;;;;;;;;;20.50;99.90;;;;;;5022850;28;19933;-79
2022/06/13 14:25:45;;;;;;;;;;;20.90;99.90;;;;;;5017805;28;20017;-79
2022/06/13 14:28:15;;;;;;;;;;;20.40;99.90;;;;;;5025162;28;19932;-81
2022/06/13 14:31:06;;;;;;;;;;;21.10;99.90;;;;;;5025901;28;19939;-81
2022/06/13 14:36:46;;;;;;;;;;;20.70;99.90;;;;;;5011606;28;19933;-81
2022/06/13 14:39:16;;;;;;;;;;;20.10;99.90;;;;;;5012451;28;19978;-80
2022/06/13 14:41:43;;;;;;;;;;;19.80;99.90;;;;;;5013190;28;19925;-81
2022/06/13 14:44:18;;;;;;;;;;;19.30;99.90;;;;;;5013568;28;20008;-79
2022/06/13 14:47:01;;;;;;;;;;;18.80;99.90;;;;;;5012137;28;19929;-78
2022/06/13 14:49:33;;;;;;;;;;;19.00;99.90;;;;;;5012143;28;19948;-79
2022/06/13 14:52:08;;;;;;;;;;;19.20;99.90;;;;;;5030870;28;19929;-80
2022/06/13 14:54:43;;;;;;;;;;;19.20;99.90;;;;;;5023914;28;19933;-80
2022/06/13 14:57:27;;;;;;;;;;;18.90;99.90;;;;;;5028244;28;19929;-80
2022/06/13 15:00:19;;;;;;;;;;;18.90;99.90;;;;;;5016074;28;19929;-77